createdAt,value
2023-01-03T00:00:01.990Z,100.00
2023-01-03T00:02:34.564Z,100.00
2023-01-03T00:05:08.169Z,100.00
2023-01-03T00:07:40.485Z,100.00
2023-01-03T00:10:12.826Z,100.00
2023-01-03T00:12:45.259Z,100.00
2023-01-03T00:15:18.503Z,100.00
2023-01-03T00:17:52.058Z,100.00
2023-01-03T00:20:25.296Z,100.00
2023-01-03T00:22:59.237Z,100.00
2023-01-03T00:25:31.652Z,100.00
2023-01-03T00:28:04.475Z,100.00
2023-01-03T00:30:37.544Z,100.00
2023-01-03T00:33:09.921Z,100.00
2023-01-03T00:35:42.297Z,100.00
2023-01-03T00:38:14.649Z,100.00
2023-01-03T00:40:47.005Z,100.00
2023-01-03T00:43:31.070Z,100.00
2023-01-03T00:46:05.068Z,100.00
2023-01-03T00:48:38.461Z,100.00
2023-01-03T00:51:13.120Z,100.00
2023-01-03T00:53:47.753Z,100.00
2023-01-03T00:56:21.659Z,100.00
2023-01-03T00:58:54.914Z,100.00
2023-01-03T01:01:29.814Z,100.00
2023-01-03T01:04:05.189Z,100.00
2023-01-03T01:06:40.141Z,100.00
2023-01-03T01:09:15.470Z,100.00
2023-01-03T01:11:48.280Z,100.00
2023-01-03T01:14:22.706Z,100.00
2023-01-03T01:16:57.998Z,100.00
2023-01-03T01:19:37.742Z,100.00
2023-01-03T01:22:10.754Z,100.00
2023-01-03T01:24:43.170Z,100.00
2023-01-03T01:27:15.547Z,100.00
2023-01-03T01:29:48.009Z,100.00
2023-01-03T01:32:21.088Z,100.00
2023-01-03T01:34:53.404Z,100.00
2023-01-03T01:37:25.733Z,100.00
2023-01-03T01:39:58.076Z,100.00
2023-01-03T01:42:48.650Z,100.00
2023-01-03T01:45:21.095Z,100.00
2023-01-03T01:47:59.045Z,100.00
2023-01-03T01:50:37.483Z,100.00
2023-01-03T01:53:12.631Z,100.00
2023-01-03T01:55:50.861Z,100.00
2023-01-03T01:58:26.813Z,100.00
2023-01-03T02:00:59.424Z,100.00
2023-01-03T02:03:32.593Z,100.00
2023-01-03T02:06:08.089Z,100.00
2023-01-03T02:08:40.652Z,100.00
2023-01-03T02:11:27.626Z,100.00
2023-01-03T02:14:25.704Z,100.00
2023-01-03T02:17:06.576Z,100.00
2023-01-03T02:20:06.410Z,100.00
2023-01-03T02:23:21.301Z,100.00
2023-01-03T02:26:23.615Z,100.00
2023-01-03T02:29:19.561Z,100.00
2023-01-03T02:32:00.940Z,100.00
2023-01-03T02:34:41.311Z,100.00
2023-01-03T02:37:20.952Z,100.00
2023-01-03T02:40:01.317Z,100.00
2023-01-03T02:43:01.465Z,100.00
2023-01-03T02:45:47.967Z,100.00
2023-01-03T02:48:31.891Z,100.00
2023-01-03T02:51:10.534Z,100.00
2023-01-03T02:53:46.692Z,100.00
2023-01-03T02:56:23.959Z,100.00
2023-01-03T02:58:59.965Z,100.00
2023-01-03T03:01:35.254Z,100.00
2023-01-03T03:04:08.550Z,100.00
2023-01-03T03:06:47.311Z,100.00
2023-01-03T03:09:19.841Z,100.00
2023-01-03T03:12:12.325Z,100.00
2023-01-03T03:14:48.762Z,100.00
2023-01-03T03:17:27.974Z,100.00
2023-01-03T03:20:19.670Z,100.00
2023-01-03T03:23:16.528Z,100.00
2023-01-03T03:25:52.733Z,100.00
2023-01-03T03:28:35.069Z,100.00
2023-01-03T03:31:13.118Z,100.00
2023-01-03T03:33:48.903Z,100.00
2023-01-03T03:36:32.456Z,100.00
2023-01-03T03:39:28.810Z,100.00
2023-01-03T03:42:33.993Z,100.00
2023-01-03T03:45:15.864Z,100.00
2023-01-03T03:47:53.882Z,100.00
2023-01-03T03:50:30.827Z,100.00
2023-01-03T03:53:07.386Z,100.00
2023-01-03T03:55:44.237Z,100.00
2023-01-03T03:58:22.745Z,100.00
2023-01-03T04:00:56.655Z,100.00
2023-01-03T04:03:30.100Z,100.00
2023-01-03T04:06:09.648Z,100.00
2023-01-03T04:08:42.865Z,100.00
2023-01-03T04:11:15.259Z,100.00
2023-01-03T04:13:47.596Z,100.00
2023-01-03T04:16:19.913Z,100.00
2023-01-03T04:18:52.554Z,100.00
2023-01-03T04:21:25.097Z,100.00
2023-01-03T04:23:58.157Z,100.00
2023-01-03T04:26:30.530Z,100.00
2023-01-03T04:29:03.247Z,100.00
2023-01-03T04:31:35.633Z,100.00
2023-01-03T04:34:08.245Z,100.00
2023-01-03T04:36:40.579Z,100.00
2023-01-03T04:39:14.030Z,100.00
2023-01-03T04:41:46.381Z,100.00
2023-01-03T04:44:18.507Z,100.00
2023-01-03T04:46:53.055Z,100.00
2023-01-03T04:49:25.751Z,100.00
2023-01-03T04:51:58.100Z,100.00
2023-01-03T04:54:31.295Z,100.00
2023-01-03T04:57:03.805Z,100.00
2023-01-03T04:59:36.533Z,100.00
2023-01-03T05:02:08.993Z,100.00
2023-01-03T05:04:41.605Z,100.00
2023-01-03T05:07:13.980Z,100.00
2023-01-03T05:09:47.145Z,100.00
2023-01-03T05:12:19.683Z,100.00
2023-01-03T05:14:52.135Z,100.00
2023-01-03T05:17:24.468Z,100.00
2023-01-03T05:20:14.884Z,100.00
2023-01-03T05:23:05.457Z,100.00
2023-01-03T05:25:50.788Z,100.00
2023-01-03T05:28:23.859Z,100.00
2023-01-03T05:30:57.655Z,100.00
2023-01-03T05:33:30.179Z,100.00
2023-01-03T05:36:05.158Z,100.00
2023-01-03T05:38:38.183Z,100.00
2023-01-03T05:41:13.281Z,100.00
2023-01-03T05:43:45.702Z,100.00
2023-01-03T05:46:18.168Z,100.00
2023-01-03T05:48:50.510Z,100.00
2023-01-03T05:51:22.898Z,100.00
2023-01-03T05:53:55.249Z,100.00
2023-01-03T05:56:29.837Z,100.00
2023-01-03T05:59:02.287Z,100.00
2023-01-03T06:01:35.463Z,100.00
2023-01-03T06:04:08.135Z,100.00
2023-01-03T06:06:40.560Z,100.00
2023-01-03T06:09:12.888Z,100.00
2023-01-03T06:11:46.011Z,100.00
2023-01-03T06:14:19.350Z,100.00
2023-01-03T06:17:09.197Z,100.00
2023-01-03T06:19:41.550Z,100.00
2023-01-03T06:22:13.948Z,100.00
2023-01-03T06:24:46.290Z,100.00
2023-01-03T06:27:19.538Z,100.00
2023-01-03T06:29:51.845Z,100.00
2023-01-03T06:32:24.249Z,100.00
2023-01-03T06:34:56.627Z,100.00
2023-01-03T06:37:29.025Z,100.00
2023-01-03T06:40:01.498Z,100.00
2023-01-03T06:42:41.937Z,100.00
2023-01-03T06:45:32.696Z,100.00
2023-01-03T06:48:24.087Z,100.00
2023-01-03T06:51:25.787Z,100.00
2023-01-03T06:53:59.552Z,100.00
2023-01-03T06:56:31.900Z,100.00
2023-01-03T06:59:05.128Z,100.00
2023-01-03T07:01:38.666Z,100.00
2023-01-03T07:04:11.715Z,100.00
2023-01-03T07:06:44.420Z,100.00
2023-01-03T07:09:17.715Z,100.00
2023-01-03T07:11:50.274Z,100.00
2023-01-03T07:14:22.944Z,100.00
2023-01-03T07:16:55.279Z,100.00
2023-01-03T07:19:27.739Z,100.00
2023-01-03T07:22:00.136Z,100.00
2023-01-03T07:24:32.916Z,100.00
2023-01-03T07:27:05.286Z,100.00
2023-01-03T07:29:38.347Z,100.00
2023-01-03T07:32:10.697Z,100.00
2023-01-03T07:34:43.133Z,100.00
2023-01-03T07:37:15.448Z,100.00
2023-01-03T07:39:47.799Z,100.00
2023-01-03T07:42:37.955Z,100.00
2023-01-03T07:45:11.360Z,100.00
2023-01-03T07:47:44.094Z,100.00
2023-01-03T07:50:16.651Z,100.00
2023-01-03T07:52:48.908Z,100.00
2023-01-03T07:55:21.275Z,100.00
2023-01-03T07:57:53.582Z,100.00
2023-01-03T08:00:27.316Z,100.00
2023-01-03T08:02:59.766Z,100.00
2023-01-03T08:05:33.605Z,100.00
2023-01-03T08:08:06.533Z,100.00
2023-01-03T08:10:57.297Z,100.00
2023-01-03T08:13:29.623Z,100.00
2023-01-03T08:16:02.858Z,100.00
2023-01-03T08:18:35.212Z,100.00
2023-01-03T08:21:09.725Z,100.00
2023-01-03T08:23:42.741Z,100.00
2023-01-03T08:26:16.550Z,100.00
2023-01-03T08:28:48.861Z,100.00
2023-01-03T08:31:23.386Z,100.00
2023-01-03T08:34:00.821Z,100.00
2023-01-03T08:36:38.517Z,100.00
2023-01-03T08:39:14.165Z,100.00
2023-01-03T08:41:52.655Z,100.00
2023-01-03T08:44:25.974Z,100.00
2023-01-03T08:47:02.105Z,100.00
2023-01-03T08:49:34.583Z,100.00
2023-01-03T08:52:07.248Z,100.00
2023-01-03T08:54:40.623Z,100.00
2023-01-03T08:57:13.061Z,100.00
2023-01-03T08:59:45.415Z,100.00
2023-01-03T09:02:18.748Z,98.63
2023-01-03T09:04:51.261Z,97.32
2023-01-03T09:07:23.805Z,95.67
2023-01-03T09:09:56.111Z,93.78
2023-01-03T09:12:28.523Z,95.63
2023-01-03T09:15:00.856Z,93.82
2023-01-03T09:17:34.045Z,91.85
2023-01-03T09:20:07.783Z,91.26
2023-01-03T09:22:40.236Z,89.36
2023-01-03T09:25:12.567Z,84.53
2023-01-03T09:27:46.454Z,82.86
2023-01-03T09:30:19.483Z,81.16
2023-01-03T09:32:52.726Z,80.05
2023-01-03T09:35:25.140Z,79.04
2023-01-03T09:37:57.555Z,76.70
2023-01-03T09:40:30.796Z,76.26
2023-01-03T09:43:13.828Z,74.15
2023-01-03T09:45:50.141Z,73.72
2023-01-03T09:48:35.663Z,74.19
2023-01-03T09:51:30.757Z,71.69
2023-01-03T09:54:22.278Z,69.23
2023-01-03T09:57:12.945Z,70.26
2023-01-03T10:00:03.415Z,67.88
2023-01-03T10:03:12.343Z,65.93
2023-01-03T10:06:05.237Z,64.43
2023-01-03T10:08:56.237Z,65.42
2023-01-03T10:11:39.037Z,63.33
2023-01-03T10:14:28.586Z,60.51
2023-01-03T10:17:11.671Z,58.78
2023-01-03T10:20:08.003Z,58.39
2023-01-03T10:22:41.140Z,59.18
2023-01-03T10:25:17.128Z,58.77
2023-01-03T10:27:51.733Z,56.08
2023-01-03T10:30:36.848Z,56.18
2023-01-03T10:33:29.068Z,58.02
2023-01-03T10:36:01.499Z,55.25
2023-01-03T10:38:42.571Z,53.47
2023-01-03T10:41:21.326Z,54.89
2023-01-03T10:43:58.469Z,52.63
2023-01-03T10:46:31.527Z,52.81
2023-01-03T10:49:27.469Z,52.12
2023-01-03T10:52:09.165Z,51.67
2023-01-03T10:54:50.819Z,51.58
2023-01-03T10:57:38.498Z,49.91
2023-01-03T11:00:26.229Z,49.86
2023-01-03T11:03:11.481Z,50.38
2023-01-03T11:05:46.492Z,49.82
2023-01-03T11:08:21.894Z,46.72
2023-01-03T11:10:57.456Z,46.15
2023-01-03T11:13:34.411Z,45.63
2023-01-03T11:16:14.793Z,46.24
2023-01-03T11:18:59.482Z,43.52
2023-01-03T11:21:41.053Z,43.63
2023-01-03T11:24:26.958Z,43.89
2023-01-03T11:27:09.761Z,45.25
2023-01-03T11:30:05.947Z,44.92
2023-01-03T11:32:51.461Z,43.79
2023-01-03T11:35:39.537Z,44.18
2023-01-03T11:38:26.619Z,44.82
2023-01-03T11:41:11.744Z,44.73
2023-01-03T11:43:57.905Z,45.29
2023-01-03T11:46:42.334Z,45.47
2023-01-03T11:49:25.893Z,45.21
2023-01-03T11:52:17.573Z,45.61
2023-01-03T11:55:16.775Z,45.53
2023-01-03T11:58:02.460Z,45.18
2023-01-03T12:00:43.500Z,44.84
2023-01-03T12:03:28.130Z,43.74
2023-01-03T12:06:07.573Z,43.46
2023-01-03T12:09:05.471Z,45.13
2023-01-03T12:12:00.971Z,44.79
2023-01-03T12:14:39.742Z,45.12
2023-01-03T12:17:17.792Z,44.68
2023-01-03T12:19:56.826Z,45.25
2023-01-03T12:22:35.646Z,45.44
2023-01-03T12:25:18.515Z,45.90
2023-01-03T12:27:56.247Z,45.22
2023-01-03T12:30:37.816Z,45.25
2023-01-03T12:33:22.013Z,45.18
2023-01-03T12:36:01.352Z,44.78
2023-01-03T12:38:37.929Z,45.66
2023-01-03T12:41:25.090Z,46.87
2023-01-03T12:44:03.230Z,46.10
2023-01-03T12:46:40.865Z,47.04
2023-01-03T12:49:18.525Z,46.07
2023-01-03T12:51:51.124Z,47.30
2023-01-03T12:54:37.194Z,47.87
2023-01-03T12:57:24.936Z,47.92
2023-01-03T13:00:21.232Z,48.15
2023-01-03T13:02:58.058Z,48.23
2023-01-03T13:05:37.975Z,49.39
2023-01-03T13:08:31.038Z,49.93
2023-01-03T13:11:07.127Z,50.53
2023-01-03T13:13:49.405Z,50.28
2023-01-03T13:16:41.542Z,49.99
2023-01-03T13:19:40.586Z,49.33
2023-01-03T13:22:39.837Z,49.11
2023-01-03T13:25:38.682Z,48.30
2023-01-03T13:28:31.205Z,48.63
2023-01-03T13:31:47.082Z,48.28
2023-01-03T13:34:34.433Z,48.41
2023-01-03T13:37:25.335Z,48.47
2023-01-03T13:40:18.550Z,47.98
2023-01-03T13:43:02.963Z,47.33
2023-01-03T13:45:57.473Z,48.76
2023-01-03T13:48:38.325Z,48.82
2023-01-03T13:51:47.021Z,48.77
2023-01-03T13:54:56.863Z,48.04
2023-01-03T13:57:34.881Z,47.93
2023-01-03T14:00:19.057Z,48.10
2023-01-03T14:03:30.184Z,47.72
2023-01-03T14:06:36.172Z,48.32
2023-01-03T14:09:32.828Z,48.44
2023-01-03T14:12:41.436Z,48.66
2023-01-03T14:15:25.261Z,49.12
2023-01-03T14:18:07.087Z,48.81
2023-01-03T14:20:42.652Z,49.12
2023-01-03T14:23:57.702Z,49.29
2023-01-03T14:26:14.744Z,49.83
2023-01-03T14:28:49.730Z,50.36
2023-01-03T14:31:26.047Z,52.31
2023-01-03T14:34:00.281Z,51.57
2023-01-03T14:36:45.607Z,51.90
2023-01-03T14:42:03.906Z,52.23
2023-01-03T14:44:36.244Z,52.86
2023-01-03T14:47:17.305Z,53.12
2023-01-03T14:49:52.160Z,53.39
2023-01-03T14:52:30.195Z,53.32
2023-01-03T14:55:06.751Z,53.35
2023-01-03T14:57:42.706Z,53.55
2023-01-03T15:00:19.054Z,52.69
2023-01-03T15:02:53.645Z,52.84
2023-01-03T15:05:30.457Z,53.01
2023-01-03T15:08:10.039Z,53.33
2023-01-03T15:10:45.236Z,54.14
2023-01-03T15:13:22.194Z,54.58
2023-01-03T15:15:56.466Z,55.02
2023-01-03T15:18:32.309Z,55.05
2023-01-03T15:21:05.568Z,56.12
2023-01-03T15:23:40.034Z,56.12
2023-01-03T15:26:21.500Z,55.88
2023-01-03T15:28:56.186Z,56.74
2023-01-03T15:31:33.086Z,56.63
2023-01-03T15:34:14.917Z,57.01
2023-01-03T15:36:51.486Z,57.15
2023-01-03T15:39:28.884Z,57.43
2023-01-03T15:42:43.931Z,58.17
2023-01-03T15:45:18.811Z,58.55
2023-01-03T15:47:54.956Z,59.38
2023-01-03T15:50:40.027Z,60.34
2023-01-03T15:53:22.084Z,60.88
2023-01-03T15:55:58.994Z,61.69
2023-01-03T15:58:32.151Z,61.42
2023-01-03T16:01:06.391Z,62.26
2023-01-03T16:03:39.628Z,62.31
2023-01-03T16:06:12.737Z,64.19
2023-01-03T16:08:45.474Z,64.33
2023-01-03T16:11:20.837Z,64.66
2023-01-03T16:13:55.327Z,64.95
2023-01-03T16:16:31.968Z,65.40
2023-01-03T16:19:06.044Z,66.27
2023-01-03T16:21:39.148Z,67.77
2023-01-03T16:24:15.462Z,68.28
2023-01-03T16:26:47.991Z,69.75
2023-01-03T16:29:20.280Z,68.94
2023-01-03T16:31:52.749Z,71.85
2023-01-03T16:34:28.853Z,71.88
2023-01-03T16:37:09.600Z,71.90
2023-01-03T16:39:47.699Z,73.16
2023-01-03T16:42:26.582Z,75.74
2023-01-03T16:44:58.908Z,76.36
2023-01-03T16:47:34.315Z,75.62
2023-01-03T16:50:12.557Z,76.14
2023-01-03T16:52:47.834Z,76.08
2023-01-03T16:55:25.840Z,76.86
2023-01-03T16:57:58.707Z,77.02
2023-01-03T17:00:33.173Z,77.14
2023-01-03T17:03:05.702Z,77.66
2023-01-03T17:05:38.878Z,77.95
2023-01-03T17:08:20.310Z,78.08
2023-01-03T17:10:55.656Z,78.74
2023-01-03T17:13:31.913Z,78.55
2023-01-03T17:16:06.811Z,78.09
2023-01-03T17:18:41.457Z,78.10
2023-01-03T17:21:22.500Z,78.69
2023-01-03T17:24:00.376Z,80.09
2023-01-03T17:26:34.325Z,80.36
2023-01-03T17:29:11.152Z,81.32
2023-01-03T17:31:43.657Z,84.06
2023-01-03T17:34:21.879Z,83.29
2023-01-03T17:36:55.928Z,83.99
2023-01-03T17:39:29.065Z,82.79
2023-01-03T17:42:15.421Z,83.49
2023-01-03T17:45:10.289Z,82.77
2023-01-03T17:48:01.802Z,82.29
2023-01-03T17:50:34.295Z,82.65
2023-01-03T17:53:10.167Z,82.93
2023-01-03T17:55:44.222Z,82.24
2023-01-03T17:58:19.749Z,82.71
2023-01-03T18:00:52.110Z,81.64
2023-01-03T18:03:24.813Z,82.62
2023-01-03T18:05:58.093Z,82.58
2023-01-03T18:08:30.472Z,81.40
2023-01-03T18:11:06.620Z,81.76
2023-01-03T18:13:39.649Z,81.78
2023-01-03T18:16:14.994Z,82.03
2023-01-03T18:18:48.225Z,82.29
2023-01-03T18:21:22.775Z,82.92
2023-01-03T18:23:57.126Z,83.19
2023-01-03T18:26:33.721Z,83.34
2023-01-03T18:29:07.349Z,82.60
2023-01-03T18:31:39.824Z,83.85
2023-01-03T18:34:12.999Z,83.20
2023-01-03T18:36:49.532Z,83.05
2023-01-03T18:39:26.031Z,82.86
2023-01-03T18:42:19.223Z,82.99
2023-01-03T18:44:51.524Z,83.53
2023-01-03T18:47:24.620Z,84.68
2023-01-03T18:49:56.888Z,86.46
2023-01-03T18:52:32.857Z,86.26
2023-01-03T18:55:11.780Z,88.11
2023-01-03T18:57:46.106Z,88.58
2023-01-03T19:00:21.121Z,88.68
2023-01-03T19:02:54.134Z,91.51
2023-01-03T19:05:26.767Z,91.75
2023-01-03T19:07:59.694Z,91.64
2023-01-03T19:10:32.243Z,91.75
2023-01-03T19:13:05.765Z,92.55
2023-01-03T19:15:38.181Z,94.39
2023-01-03T19:18:10.618Z,93.64
2023-01-03T19:20:43.048Z,93.59
2023-01-03T19:23:21.920Z,93.01
2023-01-03T19:25:54.911Z,92.66
2023-01-03T19:28:28.340Z,92.88
2023-01-03T19:31:00.986Z,93.45
2023-01-03T19:33:33.424Z,93.36
2023-01-03T19:36:13.781Z,93.71
2023-01-03T19:38:46.221Z,93.98
2023-01-03T19:41:19.524Z,93.88
2023-01-03T19:43:52.842Z,94.52
2023-01-03T19:46:25.385Z,94.10
2023-01-03T19:48:57.829Z,93.63
2023-01-03T19:51:30.191Z,94.63
2023-01-03T19:54:02.586Z,95.02
2023-01-03T19:56:35.019Z,95.41
2023-01-03T19:59:19.163Z,97.27
2023-01-03T20:02:23.647Z,95.16
2023-01-03T20:04:44.321Z,99.51
2023-01-03T20:07:16.758Z,99.12
2023-01-03T20:09:49.212Z,99.52
2023-01-03T20:12:25.557Z,98.83
2023-01-03T20:15:04.626Z,98.37
2023-01-03T20:17:39.453Z,98.32
2023-01-03T20:20:12.560Z,99.73
2023-01-03T20:25:38.244Z,98.59
2023-01-03T20:28:16.756Z,100.00
2023-01-03T20:30:50.045Z,99.47
2023-01-03T20:33:22.673Z,100.00
2023-01-03T20:36:12.600Z,100.00
2023-01-03T20:38:48.771Z,100.00
2023-01-03T20:41:35.004Z,99.94
2023-01-03T20:44:07.671Z,99.33
2023-01-03T20:46:40.812Z,99.66
2023-01-03T20:49:16.598Z,100.00
2023-01-03T20:51:49.419Z,98.80
2023-01-03T20:54:22.397Z,99.37
2023-01-03T20:56:54.830Z,99.04
2023-01-03T20:59:28.510Z,98.31
2023-01-03T21:02:01.903Z,99.89
2023-01-03T21:04:34.382Z,100.00
2023-01-03T21:07:11.640Z,100.00
2023-01-03T21:09:44.326Z,100.00
2023-01-03T21:12:16.662Z,99.87
2023-01-03T21:14:49.013Z,99.65
2023-01-03T21:17:22.243Z,98.90
2023-01-03T21:19:54.556Z,98.59
2023-01-03T21:22:26.942Z,100.00
2023-01-03T21:25:01.234Z,100.00
2023-01-03T21:27:35.098Z,100.00
2023-01-03T21:30:09.136Z,100.00
2023-01-03T21:32:42.587Z,100.00
2023-01-03T21:35:16.809Z,100.00
2023-01-03T21:37:50.804Z,100.00
2023-01-03T21:40:25.224Z,100.00
2023-01-03T21:43:05.556Z,100.00
2023-01-03T21:45:40.207Z,100.00
2023-01-03T21:48:15.423Z,100.00
2023-01-03T21:50:49.391Z,100.00
2023-01-03T21:53:22.818Z,100.00
2023-01-03T21:55:55.162Z,100.00
2023-01-03T21:58:27.633Z,100.00
2023-01-03T22:01:09.551Z,100.00
2023-01-03T22:04:00.878Z,100.00
2023-01-03T22:06:34.387Z,100.00
2023-01-03T22:09:26.774Z,100.00
2023-01-03T22:11:59.109Z,100.00
2023-01-03T22:14:31.869Z,100.00
2023-01-03T22:17:04.198Z,100.00
2023-01-03T22:19:37.448Z,100.00
2023-01-03T22:22:10.107Z,100.00
2023-01-03T22:24:42.572Z,100.00
2023-01-03T22:27:16.099Z,100.00
2023-01-03T22:29:48.527Z,100.00
2023-01-03T22:32:22.650Z,100.00
2023-01-03T22:34:55.941Z,100.00
2023-01-03T22:37:28.313Z,100.00
2023-01-03T22:40:00.930Z,99.54
2023-01-03T22:42:33.760Z,100.00
2023-01-03T22:45:07.653Z,100.00
2023-01-03T22:47:39.946Z,100.00
2023-01-03T22:50:13.017Z,100.00
2023-01-03T22:52:45.382Z,100.00
2023-01-03T22:55:17.780Z,100.00
2023-01-03T22:57:50.095Z,100.00
2023-01-03T23:00:22.562Z,100.00
2023-01-03T23:02:54.909Z,100.00
2023-01-03T23:05:28.126Z,100.00
2023-01-03T23:08:00.910Z,100.00
2023-01-03T23:10:33.533Z,100.00
2023-01-03T23:13:06.035Z,100.00
2023-01-03T23:15:38.397Z,100.00
2023-01-03T23:18:10.686Z,100.00
2023-01-03T23:20:48.108Z,100.00
2023-01-03T23:23:20.421Z,100.00
2023-01-03T23:25:53.068Z,100.00
2023-01-03T23:28:25.514Z,100.00
2023-01-03T23:30:58.172Z,100.00
2023-01-03T23:33:31.420Z,100.00
2023-01-03T23:36:05.382Z,100.00
2023-01-03T23:38:37.861Z,100.00
2023-01-03T23:41:10.390Z,100.00
2023-01-03T23:43:43.555Z,100.00
2023-01-03T23:46:18.615Z,100.00
2023-01-03T23:48:53.989Z,100.00
2023-01-03T23:51:27.574Z,100.00
2023-01-03T23:53:59.997Z,100.00
2023-01-03T23:56:33.137Z,100.00
2023-01-03T23:59:05.604Z,100.00
